sensor_id;sensor_type;location;lat;lon;timestamp;temperature;humidity
20041;DHT22;10181;48.072;9.884;2022-11-11T00:00:23;2.40;99.90
20041;DHT22;10181;48.072;9.884;2022-11-11T00:02:48;2.30;99.90
20041;DHT22;10181;48.072;9.884;2022-11-11T00:05:17;2.30;99.90
20041;DHT22;10181;48.072;9.884;2022-11-11T00:07:43;2.20;99.90
20041;DHT22;10181;48.072;9.884;2022-11-11T00:10:09;2.20;99.90
20041;DHT22;10181;48.072;9.884;2022-11-11T00:12:35;2.20;99.90
20041;DHT22;10181;48.072;9.884;2022-11-11T00:15:01;2.10;99.90
20041;DHT22;10181;48.072;9.884;2022-11-11T00:17:26;2.10;99.90
20041;DHT22;10181;48.072;9.884;2022-11-11T00:20:30;2.10;99.90
20041;DHT22;10181;48.072;9.884;2022-11-11T00:23:22;2.00;99.90
20041;DHT22;10181;48.072;9.884;2022-11-11T00:26:08;2.00;99.90
20041;DHT22;10181;48.072;9.884;2022-11-11T00:28:34;2.00;99.90
20041;DHT22;10181;48.072;9.884;2022-11-11T00:31:07;2.00;99.90
20041;DHT22;10181;48.072;9.884;2022-11-11T00:33:32;2.00;99.90
20041;DHT22;10181;48.072;9.884;2022-11-11T00:35:59;2.00;99.90
20041;DHT22;10181;48.072;9.884;2022-11-11T00:38:25;2.00;99.90
20041;DHT22;10181;48.072;9.884;2022-11-11T00:41:13;2.00;99.90
20041;DHT22;10181;48.072;9.884;2022-11-11T00:43:39;2.10;99.90
20041;DHT22;10181;48.072;9.884;2022-11-11T00:46:05;2.00;99.90
20041;DHT22;10181;48.072;9.884;2022-11-11T00:48:50;2.00;99.90
20041;DHT22;10181;48.072;9.884;2022-11-11T00:51:34;2.00;99.90
20041;DHT22;10181;48.072;9.884;2022-11-11T00:53:59;2.00;99.90
20041;DHT22;10181;48.072;9.884;2022-11-11T00:56:25;2.00;99.90
20041;DHT22;10181;48.072;9.884;2022-11-11T00:58:51;2.10;99.90
20041;DHT22;10181;48.072;9.884;2022-11-11T01:01:17;2.10;99.90
20041;DHT22;10181;48.072;9.884;2022-11-11T01:03:43;2.10;99.90
20041;DHT22;10181;48.072;9.884;2022-11-11T01:06:10;2.10;99.90
20041;DHT22;10181;48.072;9.884;2022-11-11T01:08:36;2.10;99.90
20041;DHT22;10181;48.072;9.884;2022-11-11T01:11:02;2.10;99.90
20041;DHT22;10181;48.072;9.884;2022-11-11T01:13:30;2.10;99.90
20041;DHT22;10181;48.072;9.884;2022-11-11T01:16:04;2.00;99.90
20041;DHT22;10181;48.072;9.884;2022-11-11T01:18:31;1.90;99.90
20041;DHT22;10181;48.072;9.884;2022-11-11T01:21:05;1.90;99.90
20041;DHT22;10181;48.072;9.884;2022-11-11T01:23:33;1.80;99.90
20041;DHT22;10181;48.072;9.884;2022-11-11T01:26:20;1.80;99.90
20041;DHT22;10181;48.072;9.884;2022-11-11T01:28:51;1.80;99.90
20041;DHT22;10181;48.072;9.884;2022-11-11T01:31:18;1.80;99.90
20041;DHT22;10181;48.072;9.884;2022-11-11T01:33:44;1.80;99.90
20041;DHT22;10181;48.072;9.884;2022-11-11T01:36:21;1.70;99.90
20041;DHT22;10181;48.072;9.884;2022-11-11T01:38:50;1.70;99.90
20041;DHT22;10181;48.072;9.884;2022-11-11T01:41:19;1.70;99.90
20041;DHT22;10181;48.072;9.884;2022-11-11T01:43:57;1.80;99.90
20041;DHT22;10181;48.072;9.884;2022-11-11T01:46:33;1.80;99.90
20041;DHT22;10181;48.072;9.884;2022-11-11T01:54:55;1.80;99.90
20041;DHT22;10181;48.072;9.884;2022-11-11T02:00:12;1.60;99.90
20041;DHT22;10181;48.072;9.884;2022-11-11T02:03:26;1.50;99.90
20041;DHT22;10181;48.072;9.884;2022-11-11T02:05:27;1.40;99.90
20041;DHT22;10181;48.072;9.884;2022-11-11T02:08:14;1.40;99.90
20041;DHT22;10181;48.072;9.884;2022-11-11T02:11:01;1.40;99.90
20041;DHT22;10181;48.072;9.884;2022-11-11T02:13:28;1.40;99.90
20041;DHT22;10181;48.072;9.884;2022-11-11T02:16:13;1.50;99.90
20041;DHT22;10181;48.072;9.884;2022-11-11T02:18:40;1.60;99.90
20041;DHT22;10181;48.072;9.884;2022-11-11T02:21:06;1.60;99.90
20041;DHT22;10181;48.072;9.884;2022-11-11T02:23:43;1.60;99.90
20041;DHT22;10181;48.072;9.884;2022-11-11T02:26:12;1.60;99.90
20041;DHT22;10181;48.072;9.884;2022-11-11T02:28:40;1.70;99.90
20041;DHT22;10181;48.072;9.884;2022-11-11T02:31:07;1.70;99.90
20041;DHT22;10181;48.072;9.884;2022-11-11T02:33:34;1.70;99.90
20041;DHT22;10181;48.072;9.884;2022-11-11T02:36:00;1.70;99.90
20041;DHT22;10181;48.072;9.884;2022-11-11T02:38:27;1.70;99.90
20041;DHT22;10181;48.072;9.884;2022-11-11T02:40:54;1.60;99.90
20041;DHT22;10181;48.072;9.884;2022-11-11T02:43:38;1.40;99.90
20041;DHT22;10181;48.072;9.884;2022-11-11T02:46:05;1.30;99.90
20041;DHT22;10181;48.072;9.884;2022-11-11T02:48:31;1.20;99.90
20041;DHT22;10181;48.072;9.884;2022-11-11T02:50:57;1.10;99.90
20041;DHT22;10181;48.072;9.884;2022-11-11T02:53:23;1.10;99.90
20041;DHT22;10181;48.072;9.884;2022-11-11T02:55:49;1.10;99.90
20041;DHT22;10181;48.072;9.884;2022-11-11T02:58:14;1.10;99.90
20041;DHT22;10181;48.072;9.884;2022-11-11T03:00:40;1.10;99.90
20041;DHT22;10181;48.072;9.884;2022-11-11T03:03:07;1.00;99.90
20041;DHT22;10181;48.072;9.884;2022-11-11T03:05:33;1.10;99.90
20041;DHT22;10181;48.072;9.884;2022-11-11T03:07:58;1.10;99.90
20041;DHT22;10181;48.072;9.884;2022-11-11T03:10:24;1.20;99.90
20041;DHT22;10181;48.072;9.884;2022-11-11T03:12:50;1.20;99.90
20041;DHT22;10181;48.072;9.884;2022-11-11T03:15:15;1.10;99.90
20041;DHT22;10181;48.072;9.884;2022-11-11T03:17:41;1.10;99.90
20041;DHT22;10181;48.072;9.884;2022-11-11T03:20:11;1.10;99.90
20041;DHT22;10181;48.072;9.884;2022-11-11T03:23:01;1.10;99.90
20041;DHT22;10181;48.072;9.884;2022-11-11T03:25:27;1.10;99.90
20041;DHT22;10181;48.072;9.884;2022-11-11T03:28:05;1.00;99.90
20041;DHT22;10181;48.072;9.884;2022-11-11T03:30:31;1.00;99.90
20041;DHT22;10181;48.072;9.884;2022-11-11T03:33:00;1.00;99.90
20041;DHT22;10181;48.072;9.884;2022-11-11T03:35:27;1.00;99.90
20041;DHT22;10181;48.072;9.884;2022-11-11T03:37:53;0.90;99.90
20041;DHT22;10181;48.072;9.884;2022-11-11T03:40:45;1.00;99.90
20041;DHT22;10181;48.072;9.884;2022-11-11T03:43:12;1.00;99.90
20041;DHT22;10181;48.072;9.884;2022-11-11T03:45:39;1.10;99.90
20041;DHT22;10181;48.072;9.884;2022-11-11T03:48:04;1.10;99.90
20041;DHT22;10181;48.072;9.884;2022-11-11T03:50:30;1.10;99.90
20041;DHT22;10181;48.072;9.884;2022-11-11T03:52:56;1.10;99.90
20041;DHT22;10181;48.072;9.884;2022-11-11T03:55:25;1.10;99.90
20041;DHT22;10181;48.072;9.884;2022-11-11T03:57:50;1.10;99.90
20041;DHT22;10181;48.072;9.884;2022-11-11T04:00:22;1.10;99.90
20041;DHT22;10181;48.072;9.884;2022-11-11T04:02:48;1.10;99.90
20041;DHT22;10181;48.072;9.884;2022-11-11T04:05:32;1.10;99.90
20041;DHT22;10181;48.072;9.884;2022-11-11T04:08:18;1.10;99.90
20041;DHT22;10181;48.072;9.884;2022-11-11T04:11:06;1.10;99.90
20041;DHT22;10181;48.072;9.884;2022-11-11T04:13:33;1.10;99.90
20041;DHT22;10181;48.072;9.884;2022-11-11T04:16:17;1.20;99.90
20041;DHT22;10181;48.072;9.884;2022-11-11T04:18:43;1.10;99.90
20041;DHT22;10181;48.072;9.884;2022-11-11T04:21:27;1.10;99.90
20041;DHT22;10181;48.072;9.884;2022-11-11T04:24:21;1.00;99.90
20041;DHT22;10181;48.072;9.884;2022-11-11T04:27:10;0.90;99.90
20041;DHT22;10181;48.072;9.884;2022-11-11T04:29:36;0.90;99.90
20041;DHT22;10181;48.072;9.884;2022-11-11T04:32:04;0.80;99.90
20041;DHT22;10181;48.072;9.884;2022-11-11T04:34:51;0.80;99.90
20041;DHT22;10181;48.072;9.884;2022-11-11T04:37:18;0.90;99.90
20041;DHT22;10181;48.072;9.884;2022-11-11T04:39:44;0.80;99.90
20041;DHT22;10181;48.072;9.884;2022-11-11T04:42:30;0.80;99.90
20041;DHT22;10181;48.072;9.884;2022-11-11T04:44:57;0.80;99.90
20041;DHT22;10181;48.072;9.884;2022-11-11T04:50:29;0.80;99.90
20041;DHT22;10181;48.072;9.884;2022-11-11T04:52:55;0.80;99.90
20041;DHT22;10181;48.072;9.884;2022-11-11T04:55:21;0.90;99.90
20041;DHT22;10181;48.072;9.884;2022-11-11T04:58:05;0.90;99.90
20041;DHT22;10181;48.072;9.884;2022-11-11T05:00:31;0.80;99.90
20041;DHT22;10181;48.072;9.884;2022-11-11T05:02:57;0.80;99.90
20041;DHT22;10181;48.072;9.884;2022-11-11T05:08:26;0.70;99.90
20041;DHT22;10181;48.072;9.884;2022-11-11T05:11:10;0.80;99.90
20041;DHT22;10181;48.072;9.884;2022-11-11T05:13:35;0.80;99.90
20041;DHT22;10181;48.072;9.884;2022-11-11T05:16:22;0.80;99.90
20041;DHT22;10181;48.072;9.884;2022-11-11T05:19:13;0.80;99.90
20041;DHT22;10181;48.072;9.884;2022-11-11T05:24:35;0.90;99.90
20041;DHT22;10181;48.072;9.884;2022-11-11T05:27:20;1.00;99.90
20041;DHT22;10181;48.072;9.884;2022-11-11T05:29:46;1.10;99.90
20041;DHT22;10181;48.072;9.884;2022-11-11T05:32:16;1.10;99.90
20041;DHT22;10181;48.072;9.884;2022-11-11T05:34:43;1.20;99.90
20041;DHT22;10181;48.072;9.884;2022-11-11T05:37:08;1.20;99.90
20041;DHT22;10181;48.072;9.884;2022-11-11T05:39:34;1.20;99.90
20041;DHT22;10181;48.072;9.884;2022-11-11T05:42:00;1.20;99.90
20041;DHT22;10181;48.072;9.884;2022-11-11T05:44:25;1.20;99.90
20041;DHT22;10181;48.072;9.884;2022-11-11T05:46:51;1.10;99.90
20041;DHT22;10181;48.072;9.884;2022-11-11T05:49:17;1.00;99.90
20041;DHT22;10181;48.072;9.884;2022-11-11T05:51:43;1.00;99.90
20041;DHT22;10181;48.072;9.884;2022-11-11T05:54:09;1.00;99.90
20041;DHT22;10181;48.072;9.884;2022-11-11T05:56:35;1.10;99.90
20041;DHT22;10181;48.072;9.884;2022-11-11T05:59:01;1.00;99.90
20041;DHT22;10181;48.072;9.884;2022-11-11T06:01:26;1.00;99.90
20041;DHT22;10181;48.072;9.884;2022-11-11T06:03:52;1.00;99.90
20041;DHT22;10181;48.072;9.884;2022-11-11T06:06:18;1.00;99.90
20041;DHT22;10181;48.072;9.884;2022-11-11T06:08:43;0.90;99.90
20041;DHT22;10181;48.072;9.884;2022-11-11T06:11:09;0.90;99.90
20041;DHT22;10181;48.072;9.884;2022-11-11T06:13:35;0.90;99.90
20041;DHT22;10181;48.072;9.884;2022-11-11T06:16:01;0.90;99.90
20041;DHT22;10181;48.072;9.884;2022-11-11T06:18:26;0.80;99.90
20041;DHT22;10181;48.072;9.884;2022-11-11T06:20:53;0.80;99.90
20041;DHT22;10181;48.072;9.884;2022-11-11T06:23:19;0.80;99.90
20041;DHT22;10181;48.072;9.884;2022-11-11T06:25:45;0.80;99.90
20041;DHT22;10181;48.072;9.884;2022-11-11T06:28:29;0.90;99.90
20041;DHT22;10181;48.072;9.884;2022-11-11T06:30:55;0.90;99.90
20041;DHT22;10181;48.072;9.884;2022-11-11T06:33:20;0.90;99.90
20041;DHT22;10181;48.072;9.884;2022-11-11T06:35:47;1.00;99.90
20041;DHT22;10181;48.072;9.884;2022-11-11T06:38:13;1.10;99.90
20041;DHT22;10181;48.072;9.884;2022-11-11T06:40:40;1.10;99.90
20041;DHT22;10181;48.072;9.884;2022-11-11T06:43:06;1.20;99.90
20041;DHT22;10181;48.072;9.884;2022-11-11T06:45:32;1.30;99.90
20041;DHT22;10181;48.072;9.884;2022-11-11T06:47:59;1.30;99.90
20041;DHT22;10181;48.072;9.884;2022-11-11T06:50:25;1.40;99.90
20041;DHT22;10181;48.072;9.884;2022-11-11T06:52:51;1.50;99.90
20041;DHT22;10181;48.072;9.884;2022-11-11T06:55:17;1.70;99.90
20041;DHT22;10181;48.072;9.884;2022-11-11T06:57:43;1.80;99.90
20041;DHT22;10181;48.072;9.884;2022-11-11T07:00:09;2.00;99.90
20041;DHT22;10181;48.072;9.884;2022-11-11T07:03:19;2.20;99.90
20041;DHT22;10181;48.072;9.884;2022-11-11T07:05:46;2.40;99.90
20041;DHT22;10181;48.072;9.884;2022-11-11T07:08:16;2.60;99.90
20041;DHT22;10181;48.072;9.884;2022-11-11T07:10:45;2.70;99.90
20041;DHT22;10181;48.072;9.884;2022-11-11T07:24:47;2.80;99.90
20041;DHT22;10181;48.072;9.884;2022-11-11T07:29:57;3.60;99.90
20041;DHT22;10181;48.072;9.884;2022-11-11T07:32:23;3.70;99.90
20041;DHT22;10181;48.072;9.884;2022-11-11T07:34:49;3.80;99.90
20041;DHT22;10181;48.072;9.884;2022-11-11T07:37:17;3.90;99.90
20041;DHT22;10181;48.072;9.884;2022-11-11T09:55:40;6.30;99.90
20041;DHT22;10181;48.072;9.884;2022-11-11T09:58:19;6.70;99.90
20041;DHT22;10181;48.072;9.884;2022-11-11T10:00:50;6.80;99.90
20041;DHT22;10181;48.072;9.884;2022-11-11T10:03:21;6.80;99.90
20041;DHT22;10181;48.072;9.884;2022-11-11T10:05:51;6.90;99.90
20041;DHT22;10181;48.072;9.884;2022-11-11T10:09:59;6.90;99.90
20041;DHT22;10181;48.072;9.884;2022-11-11T10:12:34;6.90;99.90
20041;DHT22;10181;48.072;9.884;2022-11-11T10:15:04;7.00;99.90
20041;DHT22;10181;48.072;9.884;2022-11-11T10:17:32;7.00;99.90
20041;DHT22;10181;48.072;9.884;2022-11-11T10:22:30;6.80;99.90
20041;DHT22;10181;48.072;9.884;2022-11-11T10:25:20;6.80;99.90
20041;DHT22;10181;48.072;9.884;2022-11-11T10:27:50;6.90;99.90
20041;DHT22;10181;48.072;9.884;2022-11-11T10:30:23;6.90;99.90
20041;DHT22;10181;48.072;9.884;2022-11-11T10:32:59;6.90;99.90
20041;DHT22;10181;48.072;9.884;2022-11-11T10:35:30;6.80;99.90
20041;DHT22;10181;48.072;9.884;2022-11-11T10:40:41;6.80;99.90
20041;DHT22;10181;48.072;9.884;2022-11-11T10:43:23;6.90;99.90
20041;DHT22;10181;48.072;9.884;2022-11-11T10:46:00;6.90;99.90
20041;DHT22;10181;48.072;9.884;2022-11-11T10:48:50;7.00;99.90
20041;DHT22;10181;48.072;9.884;2022-11-11T10:51:17;7.10;99.90
20041;DHT22;10181;48.072;9.884;2022-11-11T10:54:05;7.20;99.90
20041;DHT22;10181;48.072;9.884;2022-11-11T10:56:48;7.20;99.90
20041;DHT22;10181;48.072;9.884;2022-11-11T10:59:38;7.20;99.90
20041;DHT22;10181;48.072;9.884;2022-11-11T11:02:05;7.20;99.90
20041;DHT22;10181;48.072;9.884;2022-11-11T11:04:46;7.20;99.90
20041;DHT22;10181;48.072;9.884;2022-11-11T11:07:16;7.20;99.90
20041;DHT22;10181;48.072;9.884;2022-11-11T11:09:56;7.10;99.90
20041;DHT22;10181;48.072;9.884;2022-11-11T11:12:38;7.20;99.90
20041;DHT22;10181;48.072;9.884;2022-11-11T11:15:23;7.20;99.90
20041;DHT22;10181;48.072;9.884;2022-11-11T11:20:30;7.30;99.90
20041;DHT22;10181;48.072;9.884;2022-11-11T11:22:57;7.20;99.90
20041;DHT22;10181;48.072;9.884;2022-11-11T11:25:25;7.30;99.90
20041;DHT22;10181;48.072;9.884;2022-11-11T11:28:12;7.30;99.90
20041;DHT22;10181;48.072;9.884;2022-11-11T11:30:38;7.40;99.90
20041;DHT22;10181;48.072;9.884;2022-11-11T11:33:06;7.40;99.90
20041;DHT22;10181;48.072;9.884;2022-11-11T11:38:01;7.40;99.90
20041;DHT22;10181;48.072;9.884;2022-11-11T11:45:58;7.40;99.90
20041;DHT22;10181;48.072;9.884;2022-11-11T11:56:36;7.70;99.90
20041;DHT22;10181;48.072;9.884;2022-11-11T12:01:50;7.80;99.90
20041;DHT22;10181;48.072;9.884;2022-11-11T12:04:38;7.80;99.90
20041;DHT22;10181;48.072;9.884;2022-11-11T12:10:06;7.90;99.90
20041;DHT22;10181;48.072;9.884;2022-11-11T12:12:37;7.90;99.90
20041;DHT22;10181;48.072;9.884;2022-11-11T12:17:53;8.00;99.90
20041;DHT22;10181;48.072;9.884;2022-11-11T12:20:35;8.00;99.90
20041;DHT22;10181;48.072;9.884;2022-11-11T12:23:22;8.00;99.90
20041;DHT22;10181;48.072;9.884;2022-11-11T12:33:58;8.10;99.90
20041;DHT22;10181;48.072;9.884;2022-11-11T12:36:34;8.00;99.90
20041;DHT22;10181;48.072;9.884;2022-11-11T12:44:11;8.10;99.90
20041;DHT22;10181;48.072;9.884;2022-11-11T12:47:15;8.00;99.90
20041;DHT22;10181;48.072;9.884;2022-11-11T12:50:18;8.00;99.90
20041;DHT22;10181;48.072;9.884;2022-11-11T12:53:30;8.00;99.90
20041;DHT22;10181;48.072;9.884;2022-11-11T12:56:13;8.00;99.90
20041;DHT22;10181;48.072;9.884;2022-11-11T13:07:05;8.20;99.90
20041;DHT22;10181;48.072;9.884;2022-11-11T13:15:11;8.10;99.90
20041;DHT22;10181;48.072;9.884;2022-11-11T13:17:38;8.00;99.90
20041;DHT22;10181;48.072;9.884;2022-11-11T13:23:10;8.00;99.90
20041;DHT22;10181;48.072;9.884;2022-11-11T13:25:39;8.00;99.90
20041;DHT22;10181;48.072;9.884;2022-11-11T13:31:22;8.10;99.90
20041;DHT22;10181;48.072;9.884;2022-11-11T13:33:57;8.20;99.90
20041;DHT22;10181;48.072;9.884;2022-11-11T13:36:27;8.20;99.90
20041;DHT22;10181;48.072;9.884;2022-11-11T13:39:00;8.20;99.90
20041;DHT22;10181;48.072;9.884;2022-11-11T13:41:32;8.30;99.90
20041;DHT22;10181;48.072;9.884;2022-11-11T13:44:03;8.20;99.90
20041;DHT22;10181;48.072;9.884;2022-11-11T13:46:42;8.10;99.90
20041;DHT22;10181;48.072;9.884;2022-11-11T13:52:00;8.10;99.90
20041;DHT22;10181;48.072;9.884;2022-11-11T13:54:35;8.00;99.90
20041;DHT22;10181;48.072;9.884;2022-11-11T13:57:05;8.10;99.90
20041;DHT22;10181;48.072;9.884;2022-11-11T13:59:40;8.10;99.90
20041;DHT22;10181;48.072;9.884;2022-11-11T14:02:26;8.10;99.90
20041;DHT22;10181;48.072;9.884;2022-11-11T14:10:09;8.20;99.90
20041;DHT22;10181;48.072;9.884;2022-11-11T14:12:55;8.20;99.90
20041;DHT22;10181;48.072;9.884;2022-11-11T14:15:48;8.20;99.90
20041;DHT22;10181;48.072;9.884;2022-11-11T14:20:53;8.20;99.90
20041;DHT22;10181;48.072;9.884;2022-11-11T14:23:36;8.40;99.90
20041;DHT22;10181;48.072;9.884;2022-11-11T14:28:32;8.40;99.90
20041;DHT22;10181;48.072;9.884;2022-11-11T14:34:06;8.40;99.90
20041;DHT22;10181;48.072;9.884;2022-11-11T14:36:54;8.40;99.90
20041;DHT22;10181;48.072;9.884;2022-11-11T14:45:01;8.30;99.90
20041;DHT22;10181;48.072;9.884;2022-11-11T14:47:31;8.40;99.90
20041;DHT22;10181;48.072;9.884;2022-11-11T14:49:57;8.30;99.90
20041;DHT22;10181;48.072;9.884;2022-11-11T14:57:36;8.30;99.90
20041;DHT22;10181;48.072;9.884;2022-11-11T15:00:24;8.20;99.90
20041;DHT22;10181;48.072;9.884;2022-11-11T15:05:48;8.10;99.90
20041;DHT22;10181;48.072;9.884;2022-11-11T15:08:23;8.00;99.90
20041;DHT22;10181;48.072;9.884;2022-11-11T15:16:25;7.80;99.90
20041;DHT22;10181;48.072;9.884;2022-11-11T15:21:35;7.80;99.90
20041;DHT22;10181;48.072;9.884;2022-11-11T15:29:37;7.70;99.90
20041;DHT22;10181;48.072;9.884;2022-11-11T15:32:26;7.70;99.90
20041;DHT22;10181;48.072;9.884;2022-11-11T15:37:52;7.70;99.90
20041;DHT22;10181;48.072;9.884;2022-11-11T15:40:20;7.70;99.90
20041;DHT22;10181;48.072;9.884;2022-11-11T15:42:47;7.70;99.90
20041;DHT22;10181;48.072;9.884;2022-11-11T15:47:43;7.60;99.90
20041;DHT22;10181;48.072;9.884;2022-11-11T15:52:42;7.50;99.90
20041;DHT22;10181;48.072;9.884;2022-11-11T15:55:27;7.50;99.90
20041;DHT22;10181;48.072;9.884;2022-11-11T15:57:53;7.40;99.90
20041;DHT22;10181;48.072;9.884;2022-11-11T16:00:29;7.40;99.90
20041;DHT22;10181;48.072;9.884;2022-11-11T16:02:56;7.40;99.90
20041;DHT22;10181;48.072;9.884;2022-11-11T16:05:24;7.40;99.90
20041;DHT22;10181;48.072;9.884;2022-11-11T16:07:55;7.30;99.90
20041;DHT22;10181;48.072;9.884;2022-11-11T16:10:34;7.30;99.90
20041;DHT22;10181;48.072;9.884;2022-11-11T16:18:06;7.30;99.90
20041;DHT22;10181;48.072;9.884;2022-11-11T16:23:17;7.20;99.90
20041;DHT22;10181;48.072;9.884;2022-11-11T16:25:45;7.30;99.90
20041;DHT22;10181;48.072;9.884;2022-11-11T16:28:11;7.30;99.90
20041;DHT22;10181;48.072;9.884;2022-11-11T16:30:37;7.30;99.90
20041;DHT22;10181;48.072;9.884;2022-11-11T16:33:04;7.40;99.90
20041;DHT22;10181;48.072;9.884;2022-11-11T16:36:30;7.40;99.90
20041;DHT22;10181;48.072;9.884;2022-11-11T16:39:16;7.40;99.90
20041;DHT22;10181;48.072;9.884;2022-11-11T16:41:54;7.40;99.90
20041;DHT22;10181;48.072;9.884;2022-11-11T16:44:39;7.40;99.90
20041;DHT22;10181;48.072;9.884;2022-11-11T16:47:05;7.30;99.90
20041;DHT22;10181;48.072;9.884;2022-11-11T16:49:39;7.40;99.90
20041;DHT22;10181;48.072;9.884;2022-11-11T16:52:10;7.40;99.90
20041;DHT22;10181;48.072;9.884;2022-11-11T16:54:39;7.40;99.90
20041;DHT22;10181;48.072;9.884;2022-11-11T16:57:17;7.40;99.90
20041;DHT22;10181;48.072;9.884;2022-11-11T16:59:47;7.40;99.90
20041;DHT22;10181;48.072;9.884;2022-11-11T17:02:18;7.40;99.90
20041;DHT22;10181;48.072;9.884;2022-11-11T17:04:53;7.40;99.90
20041;DHT22;10181;48.072;9.884;2022-11-11T17:12:32;7.40;99.90
20041;DHT22;10181;48.072;9.884;2022-11-11T17:14:58;7.40;99.90
20041;DHT22;10181;48.072;9.884;2022-11-11T17:17:24;7.40;99.90
20041;DHT22;10181;48.072;9.884;2022-11-11T17:19:50;7.40;99.90
20041;DHT22;10181;48.072;9.884;2022-11-11T17:22:15;7.50;99.90
20041;DHT22;10181;48.072;9.884;2022-11-11T17:24:41;7.40;99.90
20041;DHT22;10181;48.072;9.884;2022-11-11T17:27:07;7.40;99.90
20041;DHT22;10181;48.072;9.884;2022-11-11T17:29:33;7.40;99.90
20041;DHT22;10181;48.072;9.884;2022-11-11T17:31:59;7.50;99.90
20041;DHT22;10181;48.072;9.884;2022-11-11T17:34:24;7.50;99.90
20041;DHT22;10181;48.072;9.884;2022-11-11T17:36:50;7.50;99.90
20041;DHT22;10181;48.072;9.884;2022-11-11T17:39:15;7.50;99.90
20041;DHT22;10181;48.072;9.884;2022-11-11T17:41:41;7.50;99.90
20041;DHT22;10181;48.072;9.884;2022-11-11T17:44:07;7.50;99.90
20041;DHT22;10181;48.072;9.884;2022-11-11T17:46:32;7.50;99.90
20041;DHT22;10181;48.072;9.884;2022-11-11T17:48:58;7.50;99.90
20041;DHT22;10181;48.072;9.884;2022-11-11T17:51:24;7.50;99.90
20041;DHT22;10181;48.072;9.884;2022-11-11T17:53:50;7.50;99.90
20041;DHT22;10181;48.072;9.884;2022-11-11T17:56:17;7.40;99.90
20041;DHT22;10181;48.072;9.884;2022-11-11T17:58:43;7.40;99.90
20041;DHT22;10181;48.072;9.884;2022-11-11T18:01:11;7.40;99.90
20041;DHT22;10181;48.072;9.884;2022-11-11T18:03:39;7.40;99.90
20041;DHT22;10181;48.072;9.884;2022-11-11T18:06:05;7.30;99.90
20041;DHT22;10181;48.072;9.884;2022-11-11T18:08:31;7.30;99.90
20041;DHT22;10181;48.072;9.884;2022-11-11T18:11:01;7.30;99.90
20041;DHT22;10181;48.072;9.884;2022-11-11T18:13:28;7.30;99.90
20041;DHT22;10181;48.072;9.884;2022-11-11T18:15:53;7.30;99.90
20041;DHT22;10181;48.072;9.884;2022-11-11T18:18:21;7.30;99.90
20041;DHT22;10181;48.072;9.884;2022-11-11T18:20:47;7.30;99.90
20041;DHT22;10181;48.072;9.884;2022-11-11T18:23:13;7.30;99.90
20041;DHT22;10181;48.072;9.884;2022-11-11T18:25:38;7.30;99.90
20041;DHT22;10181;48.072;9.884;2022-11-11T18:28:06;7.20;99.90
20041;DHT22;10181;48.072;9.884;2022-11-11T18:30:32;7.20;99.90
20041;DHT22;10181;48.072;9.884;2022-11-11T18:32:58;7.20;99.90
20041;DHT22;10181;48.072;9.884;2022-11-11T18:35:23;7.20;99.90
20041;DHT22;10181;48.072;9.884;2022-11-11T18:37:49;7.20;99.90
20041;DHT22;10181;48.072;9.884;2022-11-11T18:40:14;7.20;99.90
20041;DHT22;10181;48.072;9.884;2022-11-11T18:42:40;7.20;99.90
20041;DHT22;10181;48.072;9.884;2022-11-11T18:45:06;7.20;99.90
20041;DHT22;10181;48.072;9.884;2022-11-11T18:47:31;7.20;99.90
20041;DHT22;10181;48.072;9.884;2022-11-11T18:49:57;7.20;99.90
20041;DHT22;10181;48.072;9.884;2022-11-11T18:52:23;7.10;99.90
20041;DHT22;10181;48.072;9.884;2022-11-11T18:54:48;7.10;99.90
20041;DHT22;10181;48.072;9.884;2022-11-11T18:57:14;7.10;99.90
20041;DHT22;10181;48.072;9.884;2022-11-11T18:59:39;7.10;99.90
20041;DHT22;10181;48.072;9.884;2022-11-11T19:02:07;7.00;99.90
20041;DHT22;10181;48.072;9.884;2022-11-11T19:04:32;7.00;99.90
20041;DHT22;10181;48.072;9.884;2022-11-11T19:06:58;6.90;99.90
20041;DHT22;10181;48.072;9.884;2022-11-11T19:09:25;6.90;99.90
20041;DHT22;10181;48.072;9.884;2022-11-11T19:11:51;6.80;99.90
20041;DHT22;10181;48.072;9.884;2022-11-11T19:14:17;6.80;99.90
20041;DHT22;10181;48.072;9.884;2022-11-11T19:16:44;6.80;99.90
20041;DHT22;10181;48.072;9.884;2022-11-11T19:19:09;6.80;99.90
20041;DHT22;10181;48.072;9.884;2022-11-11T19:21:36;6.80;99.90
20041;DHT22;10181;48.072;9.884;2022-11-11T19:24:05;6.80;99.90
20041;DHT22;10181;48.072;9.884;2022-11-11T19:26:31;6.80;99.90
20041;DHT22;10181;48.072;9.884;2022-11-11T19:28:58;6.80;99.90
20041;DHT22;10181;48.072;9.884;2022-11-11T19:31:26;6.80;99.90
20041;DHT22;10181;48.072;9.884;2022-11-11T19:33:53;6.80;99.90
20041;DHT22;10181;48.072;9.884;2022-11-11T19:36:21;6.80;99.90
20041;DHT22;10181;48.072;9.884;2022-11-11T19:38:49;6.70;99.90
20041;DHT22;10181;48.072;9.884;2022-11-11T19:41:23;6.70;99.90
20041;DHT22;10181;48.072;9.884;2022-11-11T19:43:50;6.70;99.90
20041;DHT22;10181;48.072;9.884;2022-11-11T19:46:19;6.70;99.90
20041;DHT22;10181;48.072;9.884;2022-11-11T19:48:46;6.70;99.90
20041;DHT22;10181;48.072;9.884;2022-11-11T19:51:17;6.70;99.90
20041;DHT22;10181;48.072;9.884;2022-11-11T19:53:44;6.70;99.90
20041;DHT22;10181;48.072;9.884;2022-11-11T19:56:13;6.60;99.90
20041;DHT22;10181;48.072;9.884;2022-11-11T19:58:39;6.60;99.90
20041;DHT22;10181;48.072;9.884;2022-11-11T20:01:17;6.60;99.90
20041;DHT22;10181;48.072;9.884;2022-11-11T20:03:44;6.50;99.90
20041;DHT22;10181;48.072;9.884;2022-11-11T20:06:31;6.50;99.90
20041;DHT22;10181;48.072;9.884;2022-11-11T20:09:01;6.40;99.90
20041;DHT22;10181;48.072;9.884;2022-11-11T20:11:28;6.40;99.90
20041;DHT22;10181;48.072;9.884;2022-11-11T20:13:54;6.40;99.90
20041;DHT22;10181;48.072;9.884;2022-11-11T20:16:20;6.40;99.90
20041;DHT22;10181;48.072;9.884;2022-11-11T20:18:46;6.40;99.90
20041;DHT22;10181;48.072;9.884;2022-11-11T20:21:12;6.50;99.90
20041;DHT22;10181;48.072;9.884;2022-11-11T20:23:39;6.50;99.90
20041;DHT22;10181;48.072;9.884;2022-11-11T20:26:10;6.50;99.90
20041;DHT22;10181;48.072;9.884;2022-11-11T20:28:36;6.50;99.90
20041;DHT22;10181;48.072;9.884;2022-11-11T20:31:12;6.50;99.90
20041;DHT22;10181;48.072;9.884;2022-11-11T20:33:38;6.40;99.90
20041;DHT22;10181;48.072;9.884;2022-11-11T20:36:06;6.40;99.90
20041;DHT22;10181;48.072;9.884;2022-11-11T20:38:32;6.30;99.90
20041;DHT22;10181;48.072;9.884;2022-11-11T20:40:59;6.30;99.90
20041;DHT22;10181;48.072;9.884;2022-11-11T20:43:30;6.30;99.90
20041;DHT22;10181;48.072;9.884;2022-11-11T20:46:07;6.30;99.90
20041;DHT22;10181;48.072;9.884;2022-11-11T20:48:34;6.30;99.90
20041;DHT22;10181;48.072;9.884;2022-11-11T20:51:05;6.30;99.90
20041;DHT22;10181;48.072;9.884;2022-11-11T20:53:30;6.30;99.90
20041;DHT22;10181;48.072;9.884;2022-11-11T20:56:11;6.40;99.90
20041;DHT22;10181;48.072;9.884;2022-11-11T20:58:38;6.40;99.90
20041;DHT22;10181;48.072;9.884;2022-11-11T21:01:07;6.30;99.90
20041;DHT22;10181;48.072;9.884;2022-11-11T21:03:32;6.30;99.90
20041;DHT22;10181;48.072;9.884;2022-11-11T21:06:03;6.40;99.90
20041;DHT22;10181;48.072;9.884;2022-11-11T21:08:29;6.40;99.90